CheckWX is a tool to help pilots better visualize weather data.  It is not intended as a substitute for an official pre-flight weather briefing.

12:24:52 UTC

CYGW TAF
Kuujjuarapik Airport
Kuujjuarapik, Canada
TAF CYGW 221139Z 2212/2224 VRB03KT P6SM -SN OVC020 TEMPO 2212/2215 P6SM NSW OVC025 FM221500 33010KT P6SM SCT015 TEMPO 2215/2217 BKN015 FM222100 30008KT P6SM FEW015 BECMG 2222/2224 18005KT RMK FCST BASED ON AUTO OBS. NXT FCST BY 221800Z

Mar-22@
12:00 UTC

Mar-22 @ 12:00 UTC

Mar-22@
15:00 UTC

Mar-22 @ 15:00 UTC

TAF CYGW 221139Z 2212/2224 VRB03KT P6SM -SN OVC020
Wind
  • Variable at 3 KTS
Conditions
Light Snow
Cloud Levels
  • Overcast at 2,000' AGL

Mar-22@
12:00 UTC

Mar-22 @ 12:00 UTC

Mar-22@
15:00 UTC

Mar-22 @ 15:00 UTC

TEMPO 2212/2215 P6SM NSW OVC025

Temporary

Temporary Changes expected for less than half the time period

Conditions
No significant weather
Cloud Levels
  • Overcast at 2,500' AGL

Mar-22@
15:00 UTC

Mar-22 @ 15:00 UTC

Mar-22@
17:00 UTC

Mar-22 @ 17:00 UTC

TEMPO 2215/2217 BKN015

Temporary

Temporary Changes expected for less than half the time period

Cloud Levels
  • Broken at 1,500' AGL

Mar-22@
15:00 UTC

Mar-22 @ 15:00 UTC

Mar-22@
21:00 UTC

Mar-22 @ 21:00 UTC

FM221500 33010KT P6SM SCT015

From

From Standard forecast or significant change

Wind
  • 330° at 10 KTS
Cloud Levels
  • Scattered at 1,500' AGL

Mar-22@
21:00 UTC

Mar-22 @ 21:00 UTC

Mar-22@
22:00 UTC

Mar-22 @ 22:00 UTC

FM222100 30008KT P6SM FEW015

From

From Standard forecast or significant change

Wind
  • 300° at 8 KTS
Cloud Levels
  • Few at 1,500' AGL

Mar-22@
22:00 UTC

Mar-22 @ 22:00 UTC

Mar-23@
00:00 UTC

Mar-23 @ 00:00 UTC

BECMG 2222/2224 18005KT RMK FCST BASED ON AUTO OBS. NXT FCST BY 221800Z

Becoming

Becoming Conditions expected by Sat, Mar 23, 2019 @ 00:00 UTC

Wind
  • 180° at 5 KTS
Cloud Levels
  • Few at 1,500' AGL